createdAt,value
2019-01-06T00:01:31.472Z,1.70
2019-01-06T00:04:20.857Z,1.80
2019-01-06T00:07:08.354Z,1.80
2019-01-06T00:09:42.180Z,1.70
2019-01-06T00:12:18.845Z,1.70
2019-01-06T00:15:06.148Z,1.70
2019-01-06T00:17:39.817Z,1.60
2019-01-06T00:20:27.410Z,1.60
2019-01-06T00:22:58.515Z,1.70
2019-01-06T00:25:45.575Z,1.60
2019-01-06T00:28:33.162Z,1.60
2019-01-06T00:31:20.648Z,1.60
2019-01-06T00:34:00.805Z,1.50
2019-01-06T00:36:48.215Z,1.50
2019-01-06T00:39:31.193Z,1.50
2019-01-06T00:42:05.020Z,1.40
2019-01-06T00:44:45.067Z,1.40
2019-01-06T00:47:19.127Z,1.40
2019-01-06T00:49:53.056Z,1.40
2019-01-06T00:52:24.139Z,1.40
2019-01-06T00:55:11.431Z,1.30
2019-01-06T00:57:57.606Z,1.30
2019-01-06T01:00:40.683Z,1.30
2019-01-06T01:03:26.615Z,1.20
2019-01-06T01:06:13.778Z,1.20
2019-01-06T01:08:50.370Z,1.20
2019-01-06T01:11:37.661Z,1.10
2019-01-06T01:14:18.032Z,1.20
2019-01-06T01:17:05.604Z,1.10
2019-01-06T01:19:36.699Z,1.20
2019-01-06T01:22:13.811Z,1.20
2019-01-06T01:25:01.074Z,1.20
2019-01-06T01:27:32.236Z,1.20
2019-01-06T01:30:18.228Z,1.20
2019-01-06T01:33:07.192Z,1.20
2019-01-06T01:35:47.044Z,1.20
2019-01-06T01:38:20.728Z,1.20
2019-01-06T01:41:10.087Z,1.20
2019-01-06T01:43:41.176Z,1.20
2019-01-06T01:46:15.096Z,1.20
2019-01-06T01:48:46.191Z,1.20
2019-01-06T01:51:20.037Z,1.10
2019-01-06T01:54:07.250Z,1.20
2019-01-06T01:56:38.369Z,1.20
2019-01-06T01:59:12.544Z,1.40
2019-01-06T02:01:59.449Z,1.20
2019-01-06T02:04:45.801Z,1.20
2019-01-06T02:07:22.668Z,1.10
2019-01-06T02:10:10.256Z,1.10
2019-01-06T02:12:57.967Z,1.20
2019-01-06T02:15:29.093Z,1.20
2019-01-06T02:18:00.188Z,1.10
2019-01-06T02:20:46.411Z,1.10
2019-01-06T02:23:17.673Z,1.00
2019-01-06T02:25:59.592Z,1.10
2019-01-06T02:28:46.616Z,1.00
2019-01-06T02:31:20.755Z,1.00
2019-01-06T02:34:08.383Z,1.00
2019-01-06T02:36:55.673Z,1.00
2019-01-06T02:39:26.770Z,1.00
2019-01-06T02:41:57.888Z,1.00
2019-01-06T02:44:34.925Z,0.90
2019-01-06T02:47:06.015Z,0.90
2019-01-06T02:49:37.121Z,0.90
2019-01-06T02:52:10.712Z,0.90
2019-01-06T02:55:00.164Z,0.90
2019-01-06T02:57:33.981Z,1.00
2019-01-06T03:00:08.336Z,0.90
2019-01-06T03:02:54.436Z,0.90
2019-01-06T03:05:25.577Z,0.90
2019-01-06T03:07:56.671Z,0.90
2019-01-06T03:10:33.846Z,0.90
2019-01-06T03:13:10.819Z,1.00
2019-01-06T03:15:51.113Z,0.90
2019-01-06T03:18:22.227Z,1.00
2019-01-06T03:21:08.332Z,1.00
2019-01-06T03:23:55.827Z,0.90
2019-01-06T03:26:42.011Z,0.90
2019-01-06T03:29:22.143Z,0.90
2019-01-06T03:31:53.301Z,1.00
2019-01-06T03:34:33.401Z,0.80
2019-01-06T03:37:10.742Z,0.90
2019-01-06T03:39:47.793Z,0.80
2019-01-06T03:42:37.097Z,0.80
2019-01-06T03:45:25.034Z,0.90
2019-01-06T03:48:04.926Z,0.80
2019-01-06T03:50:45.282Z,0.90
2019-01-06T03:53:32.888Z,0.80
2019-01-06T03:56:20.023Z,0.90
2019-01-06T03:59:00.378Z,0.90
2019-01-06T04:01:37.124Z,0.90
2019-01-06T04:04:08.282Z,0.90
2019-01-06T04:06:39.542Z,0.80
2019-01-06T04:09:13.434Z,0.80
2019-01-06T04:11:44.555Z,0.80
2019-01-06T04:14:32.047Z,0.80
2019-01-06T04:17:19.150Z,0.80
2019-01-06T04:20:06.608Z,0.90
2019-01-06T04:22:54.577Z,0.80
2019-01-06T04:25:34.353Z,0.90
2019-01-06T04:28:21.393Z,0.80
2019-01-06T04:30:52.497Z,0.80
2019-01-06T04:33:29.437Z,1.00
2019-01-06T04:36:00.529Z,0.90
2019-01-06T04:38:40.392Z,0.90
2019-01-06T04:41:29.563Z,0.80
2019-01-06T04:44:17.072Z,0.90
2019-01-06T04:47:06.493Z,0.80
2019-01-06T04:49:37.595Z,0.80
2019-01-06T04:52:23.771Z,0.90
2019-01-06T04:55:09.969Z,0.90
2019-01-06T04:57:57.410Z,0.90
2019-01-06T05:00:44.863Z,0.90
2019-01-06T05:03:16.000Z,0.80
2019-01-06T05:05:47.164Z,0.90
2019-01-06T05:08:24.055Z,0.80
2019-01-06T05:10:58.097Z,0.90
2019-01-06T05:13:29.231Z,0.80
2019-01-06T05:16:00.316Z,0.90
2019-01-06T05:18:47.584Z,0.90
2019-01-06T05:21:24.469Z,0.90
2019-01-06T05:23:55.579Z,0.90
2019-01-06T05:26:26.667Z,0.80
2019-01-06T05:29:00.736Z,0.80
2019-01-06T05:31:48.017Z,0.80
2019-01-06T05:34:34.201Z,0.90
2019-01-06T05:37:11.395Z,0.90
2019-01-06T05:39:44.878Z,1.00
2019-01-06T05:42:16.007Z,0.90
2019-01-06T05:45:02.088Z,1.00
2019-01-06T05:47:42.131Z,1.00
2019-01-06T05:50:13.254Z,1.00
2019-01-06T05:52:56.554Z,1.00
2019-01-06T05:55:36.431Z,1.00
2019-01-06T05:58:25.753Z,0.90
2019-01-06T06:01:02.566Z,1.00
2019-01-06T06:03:45.619Z,0.90
2019-01-06T06:06:19.506Z,1.00
2019-01-06T06:08:50.593Z,1.00
2019-01-06T06:11:38.058Z,1.00
2019-01-06T06:14:11.656Z,0.90
2019-01-06T06:16:59.268Z,1.00
2019-01-06T06:19:33.062Z,1.00
2019-01-06T06:22:06.819Z,1.10
2019-01-06T06:24:46.715Z,0.90
2019-01-06T06:27:20.559Z,0.90
2019-01-06T06:29:54.393Z,0.90
2019-01-06T06:32:28.409Z,0.90
2019-01-06T06:34:59.574Z,0.90
2019-01-06T06:37:30.663Z,0.90
2019-01-06T06:40:07.581Z,1.00
2019-01-06T06:42:47.916Z,0.90
2019-01-06T06:45:18.997Z,0.90
2019-01-06T06:48:02.060Z,0.90
2019-01-06T06:50:39.080Z,0.90
2019-01-06T06:53:22.065Z,0.90
2019-01-06T06:55:55.680Z,1.00
2019-01-06T06:58:29.670Z,0.90
2019-01-06T07:01:35.121Z,0.90
2019-01-06T07:04:06.241Z,1.10
2019-01-06T07:06:37.332Z,0.90
2019-01-06T07:09:09.097Z,1.00
2019-01-06T07:11:43.381Z,1.00
2019-01-06T07:14:20.440Z,1.20
2019-01-06T07:17:47.712Z,1.10
2019-01-06T07:20:41.985Z,1.10
2019-01-06T07:23:29.527Z,1.00
2019-01-06T07:26:15.585Z,1.10
2019-01-06T07:29:03.081Z,1.10
2019-01-06T07:31:52.245Z,1.00
2019-01-06T07:34:39.539Z,1.00
2019-01-06T07:37:13.565Z,0.90
2019-01-06T07:39:53.733Z,0.90
2019-01-06T07:42:24.855Z,1.10
2019-01-06T07:44:55.941Z,1.00
2019-01-06T07:47:27.055Z,1.00
2019-01-06T07:50:07.297Z,1.00
2019-01-06T07:52:38.418Z,1.00
2019-01-06T07:55:25.647Z,1.00
2019-01-06T07:57:59.723Z,1.10
2019-01-06T08:00:45.800Z,1.00
2019-01-06T08:03:19.613Z,0.90
2019-01-06T08:05:56.861Z,0.90
2019-01-06T08:08:39.896Z,0.90
2019-01-06T08:11:29.102Z,1.00
2019-01-06T08:14:03.079Z,1.00
2019-01-06T08:16:36.622Z,0.90
2019-01-06T08:19:19.924Z,1.10
2019-01-06T08:21:57.037Z,1.10
2019-01-06T08:24:28.150Z,1.00
2019-01-06T08:27:11.363Z,1.40
2019-01-06T08:29:58.599Z,1.40
2019-01-06T08:32:32.398Z,1.30
2019-01-06T08:35:19.785Z,1.50
2019-01-06T08:37:50.909Z,1.80
2019-01-06T08:40:27.989Z,2.20
2019-01-06T08:42:59.071Z,2.30
2019-01-06T08:45:45.237Z,2.50
2019-01-06T08:48:32.865Z,2.50
2019-01-06T08:51:06.801Z,1.70
2019-01-06T08:53:46.833Z,1.70
2019-01-06T08:56:32.759Z,1.80
2019-01-06T08:59:18.866Z,2.00
2019-01-06T09:01:58.804Z,2.00
2019-01-06T09:04:48.283Z,1.80
2019-01-06T09:07:35.583Z,1.90
2019-01-06T09:10:25.064Z,2.10
2019-01-06T09:13:12.284Z,2.30
2019-01-06T09:15:59.812Z,2.00
2019-01-06T09:18:33.730Z,2.50
2019-01-06T09:21:04.860Z,1.80
2019-01-06T09:23:38.924Z,1.60
2019-01-06T09:26:26.128Z,1.60
2019-01-06T09:29:12.485Z,2.30
2019-01-06T09:31:43.578Z,2.60
2019-01-06T09:34:14.706Z,2.30
2019-01-06T09:36:57.336Z,2.10
2019-01-06T09:39:37.427Z,1.80
2019-01-06T09:42:23.777Z,1.50
2019-01-06T09:45:11.141Z,1.50
2019-01-06T09:47:45.242Z,1.70
2019-01-06T09:50:34.533Z,2.10
2019-01-06T09:53:05.613Z,1.70
2019-01-06T09:55:52.843Z,1.50
2019-01-06T09:58:26.699Z,1.40
2019-01-06T10:00:57.831Z,1.40
2019-01-06T10:03:45.338Z,1.40
2019-01-06T10:06:16.469Z,1.30
2019-01-06T10:08:59.360Z,1.40
2019-01-06T10:11:33.426Z,1.40
2019-01-06T10:14:10.492Z,1.40
2019-01-06T10:16:41.647Z,1.20
2019-01-06T10:19:12.745Z,1.30
2019-01-06T10:21:43.834Z,1.40
2019-01-06T10:24:14.975Z,1.30
2019-01-06T10:26:46.068Z,1.20
2019-01-06T10:29:20.248Z,1.40
2019-01-06T10:32:00.384Z,1.40
2019-01-06T10:34:34.176Z,1.30
2019-01-06T10:37:05.253Z,1.30
2019-01-06T10:39:52.178Z,1.50
2019-01-06T10:42:32.432Z,1.40
2019-01-06T10:45:03.527Z,1.30
2019-01-06T10:47:34.664Z,1.20
2019-01-06T10:50:14.139Z,1.30
2019-01-06T10:52:50.969Z,1.30
2019-01-06T10:55:22.061Z,1.40
2019-01-06T10:57:59.139Z,1.30
2019-01-06T11:00:46.353Z,1.30
2019-01-06T11:03:33.850Z,1.60
2019-01-06T11:06:04.980Z,1.30
2019-01-06T11:08:36.069Z,1.40
2019-01-06T11:11:16.184Z,1.50
2019-01-06T11:13:50.234Z,1.80
2019-01-06T11:16:21.394Z,1.50
2019-01-06T11:18:58.285Z,1.40
2019-01-06T11:21:44.665Z,1.70
2019-01-06T11:24:32.307Z,1.70
2019-01-06T11:27:19.745Z,1.60
2019-01-06T11:30:26.343Z,1.40
2019-01-06T11:33:09.107Z,1.40
2019-01-06T11:35:40.194Z,1.30
2019-01-06T11:38:19.958Z,1.40
2019-01-06T11:40:53.696Z,1.40
2019-01-06T11:43:24.818Z,1.40
2019-01-06T11:45:58.853Z,1.50
2019-01-06T11:48:29.946Z,1.30
2019-01-06T11:51:16.437Z,1.30
2019-01-06T11:53:50.039Z,1.30
2019-01-06T11:56:21.132Z,1.60
2019-01-06T11:58:54.823Z,1.40
2019-01-06T12:01:25.914Z,1.40
2019-01-06T12:03:56.993Z,1.40
2019-01-06T12:06:28.127Z,1.40
2019-01-06T12:09:08.493Z,1.40
2019-01-06T12:11:48.306Z,1.60
2019-01-06T12:14:28.514Z,1.60
2019-01-06T12:17:02.360Z,1.50
2019-01-06T12:19:39.304Z,1.50
2019-01-06T12:22:16.196Z,1.60
2019-01-06T12:24:50.383Z,1.80
2019-01-06T12:27:21.476Z,1.50
2019-01-06T12:30:04.925Z,1.70
2019-01-06T12:32:45.276Z,1.60
2019-01-06T12:35:16.377Z,1.70
2019-01-06T12:38:03.955Z,1.50
2019-01-06T12:40:38.063Z,1.50
2019-01-06T12:43:24.262Z,1.40
2019-01-06T12:46:11.507Z,1.50
2019-01-06T12:48:59.388Z,1.60
2019-01-06T12:51:30.482Z,1.50
2019-01-06T12:54:04.355Z,1.30
2019-01-06T12:56:35.455Z,1.50
2019-01-06T12:59:22.769Z,1.30
2019-01-06T13:01:53.869Z,1.30
2019-01-06T13:04:40.932Z,1.30
2019-01-06T13:07:12.026Z,1.40
2019-01-06T13:09:58.200Z,1.20
2019-01-06T13:12:41.031Z,1.20
2019-01-06T13:15:29.437Z,1.20
2019-01-06T13:18:00.542Z,1.40
2019-01-06T13:20:49.342Z,1.40
2019-01-06T13:23:26.396Z,1.60
2019-01-06T13:26:03.467Z,1.40
2019-01-06T13:28:50.758Z,1.30
2019-01-06T13:31:24.715Z,1.30
2019-01-06T13:34:08.059Z,1.50
2019-01-06T13:36:45.246Z,1.30
2019-01-06T13:39:16.350Z,1.50
2019-01-06T13:41:47.451Z,1.40
2019-01-06T13:44:33.860Z,1.40
2019-01-06T13:47:07.626Z,1.30
2019-01-06T13:49:55.228Z,1.50
2019-01-06T13:52:26.321Z,1.40
2019-01-06T13:55:03.597Z,1.40
2019-01-06T13:57:40.355Z,1.40
2019-01-06T14:00:12.635Z,1.40
2019-01-06T14:02:46.394Z,1.30
2019-01-06T14:05:26.290Z,1.30
2019-01-06T14:07:57.387Z,1.40
2019-01-06T14:10:31.504Z,1.40
2019-01-06T14:13:02.597Z,1.40
2019-01-06T14:15:39.795Z,1.40
2019-01-06T14:18:23.185Z,1.40
2019-01-06T14:21:10.735Z,1.40
2019-01-06T14:23:41.829Z,1.40
2019-01-06T14:26:12.918Z,1.40
2019-01-06T14:28:58.987Z,1.60
2019-01-06T14:31:46.456Z,1.50
2019-01-06T14:34:20.346Z,1.40
2019-01-06T14:36:56.902Z,1.40
2019-01-06T14:39:44.119Z,1.40
2019-01-06T14:42:33.052Z,1.50
2019-01-06T14:45:19.275Z,2.00
2019-01-06T14:48:02.399Z,2.40
2019-01-06T14:50:33.539Z,2.70
2019-01-06T14:53:04.638Z,2.70
2019-01-06T14:55:44.883Z,2.80
2019-01-06T14:58:43.491Z,2.80
2019-01-06T15:01:23.496Z,3.00
2019-01-06T15:04:06.867Z,2.90
2019-01-06T15:06:47.213Z,3.00
2019-01-06T15:09:34.426Z,4.20
2019-01-06T15:12:14.640Z,4.30
2019-01-06T15:14:59.352Z,4.50
2019-01-06T15:17:46.318Z,4.60
2019-01-06T15:20:34.028Z,3.70
2019-01-06T15:23:21.031Z,4.00
2019-01-06T15:26:08.424Z,3.80
2019-01-06T15:28:39.521Z,3.60
2019-01-06T15:31:10.620Z,4.20
2019-01-06T15:33:44.928Z,4.80
2019-01-06T15:36:18.744Z,4.20
2019-01-06T15:38:54.120Z,4.20
2019-01-06T15:41:31.156Z,4.10
2019-01-06T15:44:18.665Z,4.30
2019-01-06T15:46:52.474Z,4.40
2019-01-06T15:49:26.532Z,4.40
2019-01-06T15:52:09.718Z,4.40
2019-01-06T15:54:56.779Z,4.40
2019-01-06T15:57:33.664Z,4.40
2019-01-06T16:00:21.217Z,4.50
2019-01-06T16:02:52.301Z,4.70
2019-01-06T16:05:39.980Z,4.70
2019-01-06T16:08:13.985Z,4.90
2019-01-06T16:11:01.307Z,4.90
2019-01-06T16:13:48.664Z,5.00
2019-01-06T16:16:25.520Z,4.90
2019-01-06T16:18:56.677Z,4.90
2019-01-06T16:21:39.739Z,4.60
2019-01-06T16:24:26.958Z,4.30
2019-01-06T16:26:58.045Z,4.10
2019-01-06T16:29:29.176Z,4.20
2019-01-06T16:32:16.467Z,4.10
2019-01-06T16:34:47.378Z,4.20
2019-01-06T16:37:36.985Z,4.10
2019-01-06T16:40:26.083Z,4.20
2019-01-06T16:43:13.740Z,4.00
2019-01-06T16:45:50.538Z,3.90
2019-01-06T16:48:37.818Z,4.00
2019-01-06T16:51:24.865Z,3.80
2019-01-06T16:54:04.934Z,3.60
2019-01-06T16:56:54.077Z,3.70
2019-01-06T16:59:41.654Z,3.60
2019-01-06T17:02:29.172Z,3.80
2019-01-06T17:05:06.006Z,3.60
2019-01-06T17:07:44.789Z,3.60
2019-01-06T17:10:21.563Z,3.20
2019-01-06T17:12:58.588Z,3.20
2019-01-06T17:15:44.797Z,3.20
2019-01-06T17:18:34.251Z,3.20
2019-01-06T17:21:13.833Z,3.10
2019-01-06T17:23:50.564Z,2.80
2019-01-06T17:26:38.457Z,3.00
2019-01-06T17:29:12.048Z,3.10
2019-01-06T17:31:45.872Z,3.40
2019-01-06T17:34:33.451Z,2.70
2019-01-06T17:37:20.636Z,2.90
2019-01-06T17:40:00.482Z,3.50
2019-01-06T17:42:48.495Z,3.50
2019-01-06T17:45:22.603Z,2.90
2019-01-06T17:47:53.680Z,2.20
2019-01-06T17:50:24.857Z,2.90
2019-01-06T17:53:01.726Z,3.20
2019-01-06T17:55:42.071Z,2.80
2019-01-06T17:58:16.043Z,2.40
2019-01-06T18:01:03.563Z,2.60
2019-01-06T18:03:37.164Z,2.60
2019-01-06T18:06:08.250Z,2.70
2019-01-06T18:08:39.355Z,3.00
2019-01-06T18:11:15.918Z,2.10
2019-01-06T18:13:56.093Z,2.50
2019-01-06T18:16:30.021Z,2.60
2019-01-06T18:19:17.271Z,2.60
2019-01-06T18:22:04.449Z,2.40
2019-01-06T18:24:50.566Z,2.60
2019-01-06T18:27:29.746Z,2.00
2019-01-06T18:30:15.796Z,2.40
2019-01-06T18:32:58.669Z,2.30
2019-01-06T18:35:41.663Z,1.90
2019-01-06T18:38:21.973Z,2.00
2019-01-06T18:40:53.088Z,1.50
2019-01-06T18:43:40.138Z,2.20
2019-01-06T18:46:20.299Z,2.40
2019-01-06T18:48:57.197Z,2.20
2019-01-06T18:51:36.892Z,2.00
2019-01-06T18:54:10.451Z,2.10
2019-01-06T18:56:44.081Z,1.90
2019-01-06T18:59:28.100Z,1.60
2019-01-06T19:02:11.754Z,1.60
2019-01-06T19:04:59.791Z,1.80
2019-01-06T19:07:30.886Z,1.70
2019-01-06T19:10:11.294Z,1.20
2019-01-06T19:12:46.123Z,1.10
2019-01-06T19:15:17.367Z,1.00
2019-01-06T19:18:04.652Z,1.10
2019-01-06T19:20:50.651Z,1.20
2019-01-06T19:23:33.594Z,1.00
2019-01-06T19:26:04.775Z,1.00
2019-01-06T19:28:36.603Z,1.10
2019-01-06T19:31:11.645Z,1.20
2019-01-06T19:33:44.710Z,1.10
2019-01-06T19:36:27.956Z,0.90
2019-01-06T19:39:05.248Z,0.90
2019-01-06T19:41:52.870Z,0.90
2019-01-06T19:44:23.979Z,1.00
2019-01-06T19:47:00.807Z,1.00
2019-01-06T19:49:37.760Z,1.10
2019-01-06T19:52:17.837Z,0.90
2019-01-06T19:55:04.325Z,1.00
2019-01-06T19:57:51.642Z,0.90
2019-01-06T20:00:35.032Z,1.00
2019-01-06T20:03:11.732Z,1.20
2019-01-06T20:05:57.821Z,0.80
2019-01-06T20:08:43.783Z,0.90
2019-01-06T20:11:14.877Z,0.60
2019-01-06T20:13:45.974Z,0.80
2019-01-06T20:16:33.422Z,0.80
2019-01-06T20:19:04.585Z,0.60
2019-01-06T20:21:35.664Z,0.70
2019-01-06T20:24:09.829Z,0.80
2019-01-06T20:26:46.839Z,1.10
2019-01-06T20:29:17.988Z,0.80
2019-01-06T20:31:55.201Z,0.80
2019-01-06T20:34:26.351Z,0.70
2019-01-06T20:37:00.392Z,0.60
2019-01-06T20:39:40.255Z,0.70
2019-01-06T20:42:11.401Z,0.60
2019-01-06T20:44:54.736Z,0.70
2019-01-06T20:47:25.693Z,0.60
2019-01-06T20:50:03.570Z,0.60
2019-01-06T20:52:46.570Z,0.50
2019-01-06T20:55:29.783Z,0.60
2019-01-06T20:58:17.330Z,0.60
2019-01-06T21:01:04.457Z,0.50
2019-01-06T21:03:51.863Z,0.50
2019-01-06T21:06:35.035Z,0.70
2019-01-06T21:09:17.000Z,0.80
2019-01-06T21:11:48.153Z,0.60
2019-01-06T21:14:35.528Z,0.60
2019-01-06T21:17:06.655Z,0.60
2019-01-06T21:19:54.113Z,0.60
2019-01-06T21:22:34.266Z,0.60
2019-01-06T21:25:05.473Z,0.50
2019-01-06T21:27:45.801Z,0.60
2019-01-06T21:30:33.128Z,0.60
2019-01-06T21:33:16.644Z,0.60
2019-01-06T21:36:04.135Z,0.50
2019-01-06T21:38:47.063Z,0.50
2019-01-06T21:41:30.318Z,0.50
2019-01-06T21:44:10.471Z,0.50
2019-01-06T21:46:41.599Z,0.40
2019-01-06T21:49:18.655Z,0.50
2019-01-06T21:51:52.985Z,0.50
2019-01-06T21:54:40.518Z,0.60
2019-01-06T21:57:11.668Z,0.60
2019-01-06T21:59:42.748Z,0.60
2019-01-06T22:02:19.613Z,0.60
2019-01-06T22:04:56.860Z,0.70
2019-01-06T22:07:27.996Z,0.90
2019-01-06T22:10:04.800Z,0.70
2019-01-06T22:12:41.759Z,0.80
2019-01-06T22:15:19.039Z,1.20
2019-01-06T22:17:52.988Z,1.20
2019-01-06T22:20:26.731Z,0.80
2019-01-06T22:23:15.911Z,0.60
2019-01-06T22:25:49.707Z,0.60
2019-01-06T22:28:25.368Z,0.60
2019-01-06T22:30:59.165Z,0.80
2019-01-06T22:33:33.136Z,0.70
2019-01-06T22:36:05.533Z,0.60
2019-01-06T22:41:46.003Z,0.90
2019-01-06T22:44:17.130Z,1.10
2019-01-06T22:46:50.901Z,0.90
2019-01-06T22:49:21.995Z,0.80
2019-01-06T22:52:02.167Z,0.80
2019-01-06T22:54:36.068Z,0.80
2019-01-06T22:57:13.311Z,0.80
2019-01-06T23:00:02.444Z,0.70
2019-01-06T23:02:42.491Z,0.90
2019-01-06T23:05:16.379Z,0.80
2019-01-06T23:08:05.576Z,0.70
2019-01-06T23:10:45.655Z,0.80
2019-01-06T23:13:23.016Z,0.80
2019-01-06T23:15:57.225Z,0.80
2019-01-06T23:18:34.227Z,0.60
2019-01-06T23:21:05.322Z,0.70
2019-01-06T23:23:52.762Z,0.70
2019-01-06T23:26:26.610Z,0.70
2019-01-06T23:29:07.019Z,0.70
2019-01-06T23:31:49.971Z,0.50
2019-01-06T23:34:21.105Z,0.60
2019-01-06T23:36:57.883Z,0.70
2019-01-06T23:39:44.048Z,0.50
2019-01-06T23:42:24.189Z,0.50
2019-01-06T23:45:10.383Z,0.60
2019-01-06T23:47:53.651Z,0.60
2019-01-06T23:50:30.502Z,0.50
2019-01-06T23:53:10.487Z,0.40
2019-01-06T23:55:56.674Z,0.50
2019-01-06T23:58:46.041Z,0.50
